sensor_id;sensor_type;location;lat;lon;timestamp;P1;durP1;ratioP1;P2;durP2;ratioP2
30635;SDS011;17400;52.392;9.750;2023-11-21T00:00:03;8.75;;;3.88;;
30635;SDS011;17400;52.392;9.750;2023-11-21T00:02:37;6.05;;;3.15;;
30635;SDS011;17400;52.392;9.750;2023-11-21T00:05:07;8.63;;;3.92;;
30635;SDS011;17400;52.392;9.750;2023-11-21T00:07:37;9.13;;;4.25;;
30635;SDS011;17400;52.392;9.750;2023-11-21T00:10:06;6.93;;;3.72;;
30635;SDS011;17400;52.392;9.750;2023-11-21T00:12:35;9.57;;;3.97;;
30635;SDS011;17400;52.392;9.750;2023-11-21T00:15:03;10.45;;;4.53;;
30635;SDS011;17400;52.392;9.750;2023-11-21T00:17:32;9.57;;;3.92;;
30635;SDS011;17400;52.392;9.750;2023-11-21T00:20:00;8.25;;;3.67;;
30635;SDS011;17400;52.392;9.750;2023-11-21T00:22:28;8.10;;;3.97;;
30635;SDS011;17400;52.392;9.750;2023-11-21T00:24:57;8.88;;;3.92;;
30635;SDS011;17400;52.392;9.750;2023-11-21T00:27:25;8.02;;;4.32;;
30635;SDS011;17400;52.392;9.750;2023-11-21T00:29:53;8.25;;;3.92;;
30635;SDS011;17400;52.392;9.750;2023-11-21T00:32:21;10.23;;;4.07;;
30635;SDS011;17400;52.392;9.750;2023-11-21T00:34:49;7.07;;;4.35;;
30635;SDS011;17400;52.392;9.750;2023-11-21T00:37:16;13.35;;;4.97;;
30635;SDS011;17400;52.392;9.750;2023-11-21T00:39:45;10.90;;;4.30;;
30635;SDS011;17400;52.392;9.750;2023-11-21T00:42:14;10.60;;;4.20;;
30635;SDS011;17400;52.392;9.750;2023-11-21T00:44:42;8.32;;;4.82;;
30635;SDS011;17400;52.392;9.750;2023-11-21T00:47:09;8.10;;;3.92;;
30635;SDS011;17400;52.392;9.750;2023-11-21T00:49:37;11.85;;;4.57;;
30635;SDS011;17400;52.392;9.750;2023-11-21T00:52:06;7.38;;;3.55;;
30635;SDS011;17400;52.392;9.750;2023-11-21T00:54:34;6.93;;;3.75;;
30635;SDS011;17400;52.392;9.750;2023-11-21T00:57:02;7.28;;;3.97;;
30635;SDS011;17400;52.392;9.750;2023-11-21T00:59:31;10.00;;;4.47;;
30635;SDS011;17400;52.392;9.750;2023-11-21T01:01:59;12.63;;;4.57;;
30635;SDS011;17400;52.392;9.750;2023-11-21T01:04:28;7.88;;;4.03;;
30635;SDS011;17400;52.392;9.750;2023-11-21T01:06:56;10.77;;;4.38;;
30635;SDS011;17400;52.392;9.750;2023-11-21T01:09:24;9.00;;;4.22;;
30635;SDS011;17400;52.392;9.750;2023-11-21T01:11:52;12.23;;;5.32;;
30635;SDS011;17400;52.392;9.750;2023-11-21T01:14:20;12.43;;;5.10;;
30635;SDS011;17400;52.392;9.750;2023-11-21T01:16:49;12.25;;;4.97;;
30635;SDS011;17400;52.392;9.750;2023-11-21T01:19:17;9.05;;;4.22;;
30635;SDS011;17400;52.392;9.750;2023-11-21T01:21:45;7.57;;;3.50;;
30635;SDS011;17400;52.392;9.750;2023-11-21T01:24:13;12.50;;;5.28;;
30635;SDS011;17400;52.392;9.750;2023-11-21T01:26:41;12.05;;;5.07;;
30635;SDS011;17400;52.392;9.750;2023-11-21T01:29:09;12.93;;;4.70;;
30635;SDS011;17400;52.392;9.750;2023-11-21T01:31:37;8.23;;;3.80;;
30635;SDS011;17400;52.392;9.750;2023-11-21T01:34:07;10.85;;;4.68;;
30635;SDS011;17400;52.392;9.750;2023-11-21T01:36:34;10.52;;;5.78;;
30635;SDS011;17400;52.392;9.750;2023-11-21T01:39:03;10.13;;;4.18;;
30635;SDS011;17400;52.392;9.750;2023-11-21T01:41:35;12.60;;;4.43;;
30635;SDS011;17400;52.392;9.750;2023-11-21T01:44:03;9.50;;;4.57;;
30635;SDS011;17400;52.392;9.750;2023-11-21T01:46:34;10.82;;;5.32;;
30635;SDS011;17400;52.392;9.750;2023-11-21T01:49:02;8.80;;;4.25;;
30635;SDS011;17400;52.392;9.750;2023-11-21T01:51:32;9.13;;;4.90;;
30635;SDS011;17400;52.392;9.750;2023-11-21T01:54:00;10.38;;;4.45;;
30635;SDS011;17400;52.392;9.750;2023-11-21T01:56:31;8.98;;;5.03;;
30635;SDS011;17400;52.392;9.750;2023-11-21T01:59:00;9.35;;;4.45;;
30635;SDS011;17400;52.392;9.750;2023-11-21T02:01:29;15.32;;;5.78;;
30635;SDS011;17400;52.392;9.750;2023-11-21T02:03:57;11.98;;;4.38;;
30635;SDS011;17400;52.392;9.750;2023-11-21T02:06:25;10.07;;;5.50;;
30635;SDS011;17400;52.392;9.750;2023-11-21T02:08:54;13.75;;;5.95;;
30635;SDS011;17400;52.392;9.750;2023-11-21T02:11:23;8.77;;;4.88;;
30635;SDS011;17400;52.392;9.750;2023-11-21T02:13:52;10.02;;;5.53;;
30635;SDS011;17400;52.392;9.750;2023-11-21T02:16:20;12.77;;;4.82;;
30635;SDS011;17400;52.392;9.750;2023-11-21T02:18:48;15.95;;;6.32;;
30635;SDS011;17400;52.392;9.750;2023-11-21T02:21:17;12.68;;;6.65;;
30635;SDS011;17400;52.392;9.750;2023-11-21T02:23:47;15.10;;;6.50;;
30635;SDS011;17400;52.392;9.750;2023-11-21T02:26:15;13.23;;;5.80;;
30635;SDS011;17400;52.392;9.750;2023-11-21T02:28:43;12.65;;;5.60;;
30635;SDS011;17400;52.392;9.750;2023-11-21T02:31:11;15.27;;;7.15;;
30635;SDS011;17400;52.392;9.750;2023-11-21T02:33:39;12.90;;;6.05;;
30635;SDS011;17400;52.392;9.750;2023-11-21T02:36:07;15.73;;;5.72;;
30635;SDS011;17400;52.392;9.750;2023-11-21T02:38:35;15.75;;;5.68;;
30635;SDS011;17400;52.392;9.750;2023-11-21T02:41:04;11.85;;;5.63;;
30635;SDS011;17400;52.392;9.750;2023-11-21T02:43:32;10.43;;;5.05;;
30635;SDS011;17400;52.392;9.750;2023-11-21T02:46:00;15.70;;;6.90;;
30635;SDS011;17400;52.392;9.750;2023-11-21T02:48:28;14.25;;;6.22;;
30635;SDS011;17400;52.392;9.750;2023-11-21T02:50:57;14.32;;;5.15;;
30635;SDS011;17400;52.392;9.750;2023-11-21T02:53:25;14.68;;;6.25;;
30635;SDS011;17400;52.392;9.750;2023-11-21T02:55:52;13.20;;;5.15;;
30635;SDS011;17400;52.392;9.750;2023-11-21T02:58:21;13.60;;;6.20;;
30635;SDS011;17400;52.392;9.750;2023-11-21T03:00:49;15.07;;;6.82;;
30635;SDS011;17400;52.392;9.750;2023-11-21T03:03:18;11.77;;;6.78;;
30635;SDS011;17400;52.392;9.750;2023-11-21T03:05:46;13.13;;;6.22;;
30635;SDS011;17400;52.392;9.750;2023-11-21T03:08:14;11.85;;;5.00;;
30635;SDS011;17400;52.392;9.750;2023-11-21T03:10:42;12.15;;;5.85;;
30635;SDS011;17400;52.392;9.750;2023-11-21T03:13:10;19.05;;;7.35;;
30635;SDS011;17400;52.392;9.750;2023-11-21T03:15:39;14.55;;;6.10;;
30635;SDS011;17400;52.392;9.750;2023-11-21T03:18:07;13.88;;;5.85;;
30635;SDS011;17400;52.392;9.750;2023-11-21T03:20:34;13.65;;;6.72;;
30635;SDS011;17400;52.392;9.750;2023-11-21T03:23:02;12.95;;;5.13;;
30635;SDS011;17400;52.392;9.750;2023-11-21T03:25:31;15.55;;;6.68;;
30635;SDS011;17400;52.392;9.750;2023-11-21T03:27:59;20.52;;;7.20;;
30635;SDS011;17400;52.392;9.750;2023-11-21T03:30:27;17.23;;;7.25;;
30635;SDS011;17400;52.392;9.750;2023-11-21T03:32:56;15.32;;;6.68;;
30635;SDS011;17400;52.392;9.750;2023-11-21T03:35:24;11.82;;;5.93;;
30635;SDS011;17400;52.392;9.750;2023-11-21T03:37:52;14.68;;;7.60;;
30635;SDS011;17400;52.392;9.750;2023-11-21T03:40:20;14.32;;;7.20;;
30635;SDS011;17400;52.392;9.750;2023-11-21T03:42:48;15.23;;;7.43;;
30635;SDS011;17400;52.392;9.750;2023-11-21T03:45:16;14.10;;;7.45;;
30635;SDS011;17400;52.392;9.750;2023-11-21T03:47:44;17.25;;;7.68;;
30635;SDS011;17400;52.392;9.750;2023-11-21T03:50:14;13.23;;;6.95;;
30635;SDS011;17400;52.392;9.750;2023-11-21T03:52:42;13.48;;;6.07;;
30635;SDS011;17400;52.392;9.750;2023-11-21T03:55:10;19.13;;;7.00;;
30635;SDS011;17400;52.392;9.750;2023-11-21T03:57:38;16.40;;;6.78;;
30635;SDS011;17400;52.392;9.750;2023-11-21T04:00:06;19.70;;;7.72;;
30635;SDS011;17400;52.392;9.750;2023-11-21T04:02:36;15.93;;;7.35;;
30635;SDS011;17400;52.392;9.750;2023-11-21T04:05:04;17.65;;;6.78;;
30635;SDS011;17400;52.392;9.750;2023-11-21T04:07:35;16.60;;;6.50;;
30635;SDS011;17400;52.392;9.750;2023-11-21T04:10:02;22.08;;;7.72;;
30635;SDS011;17400;52.392;9.750;2023-11-21T04:12:30;17.27;;;7.82;;
30635;SDS011;17400;52.392;9.750;2023-11-21T04:14:58;14.70;;;7.72;;
30635;SDS011;17400;52.392;9.750;2023-11-21T04:17:26;22.08;;;8.20;;
30635;SDS011;17400;52.392;9.750;2023-11-21T04:19:54;17.98;;;8.52;;
30635;SDS011;17400;52.392;9.750;2023-11-21T04:22:22;18.90;;;8.52;;
30635;SDS011;17400;52.392;9.750;2023-11-21T04:24:51;13.85;;;6.93;;
30635;SDS011;17400;52.392;9.750;2023-11-21T04:27:19;19.45;;;7.78;;
30635;SDS011;17400;52.392;9.750;2023-11-21T04:29:47;16.95;;;7.22;;
30635;SDS011;17400;52.392;9.750;2023-11-21T04:32:15;15.18;;;6.00;;
30635;SDS011;17400;52.392;9.750;2023-11-21T04:34:43;19.27;;;7.88;;
30635;SDS011;17400;52.392;9.750;2023-11-21T04:37:11;23.02;;;9.68;;
30635;SDS011;17400;52.392;9.750;2023-11-21T04:39:39;19.58;;;8.10;;
30635;SDS011;17400;52.392;9.750;2023-11-21T04:42:09;18.90;;;7.85;;
30635;SDS011;17400;52.392;9.750;2023-11-21T04:44:36;23.13;;;7.97;;
30635;SDS011;17400;52.392;9.750;2023-11-21T04:47:07;14.95;;;7.50;;
30635;SDS011;17400;52.392;9.750;2023-11-21T04:49:35;14.93;;;7.45;;
30635;SDS011;17400;52.392;9.750;2023-11-21T04:52:03;22.50;;;8.52;;
30635;SDS011;17400;52.392;9.750;2023-11-21T04:54:31;17.52;;;6.75;;
30635;SDS011;17400;52.392;9.750;2023-11-21T04:56:59;19.30;;;9.13;;
30635;SDS011;17400;52.392;9.750;2023-11-21T04:59:28;10.82;;;6.00;;
30635;SDS011;17400;52.392;9.750;2023-11-21T05:01:56;19.17;;;7.47;;
30635;SDS011;17400;52.392;9.750;2023-11-21T05:04:24;16.67;;;6.88;;
30635;SDS011;17400;52.392;9.750;2023-11-21T05:06:52;17.85;;;7.22;;
30635;SDS011;17400;52.392;9.750;2023-11-21T05:09:19;17.23;;;6.68;;
30635;SDS011;17400;52.392;9.750;2023-11-21T05:11:48;13.80;;;6.38;;
30635;SDS011;17400;52.392;9.750;2023-11-21T05:14:16;15.77;;;7.30;;
30635;SDS011;17400;52.392;9.750;2023-11-21T05:16:46;18.33;;;7.68;;
30635;SDS011;17400;52.392;9.750;2023-11-21T05:19:14;11.80;;;5.65;;
30635;SDS011;17400;52.392;9.750;2023-11-21T05:21:42;16.83;;;7.00;;
30635;SDS011;17400;52.392;9.750;2023-11-21T05:24:10;14.73;;;5.70;;
30635;SDS011;17400;52.392;9.750;2023-11-21T05:26:38;11.43;;;5.38;;
30635;SDS011;17400;52.392;9.750;2023-11-21T05:29:06;13.70;;;5.97;;
30635;SDS011;17400;52.392;9.750;2023-11-21T05:31:35;19.13;;;6.00;;
30635;SDS011;17400;52.392;9.750;2023-11-21T05:34:05;11.52;;;4.85;;
30635;SDS011;17400;52.392;9.750;2023-11-21T05:36:33;13.35;;;4.43;;
30635;SDS011;17400;52.392;9.750;2023-11-21T05:39:01;10.60;;;4.57;;
30635;SDS011;17400;52.392;9.750;2023-11-21T05:41:30;10.98;;;4.85;;
30635;SDS011;17400;52.392;9.750;2023-11-21T05:43:58;11.20;;;4.53;;
30635;SDS011;17400;52.392;9.750;2023-11-21T05:46:27;8.75;;;4.40;;
30635;SDS011;17400;52.392;9.750;2023-11-21T05:48:55;10.18;;;4.72;;
30635;SDS011;17400;52.392;9.750;2023-11-21T05:51:24;8.57;;;4.43;;
30635;SDS011;17400;52.392;9.750;2023-11-21T05:53:52;8.68;;;3.97;;
30635;SDS011;17400;52.392;9.750;2023-11-21T05:56:20;8.93;;;3.85;;
30635;SDS011;17400;52.392;9.750;2023-11-21T05:58:48;11.25;;;5.38;;
30635;SDS011;17400;52.392;9.750;2023-11-21T06:01:17;9.85;;;4.25;;
30635;SDS011;17400;52.392;9.750;2023-11-21T06:03:45;9.95;;;4.20;;
30635;SDS011;17400;52.392;9.750;2023-11-21T06:06:13;11.38;;;4.32;;
30635;SDS011;17400;52.392;9.750;2023-11-21T06:08:42;9.25;;;4.65;;
30635;SDS011;17400;52.392;9.750;2023-11-21T06:11:10;9.93;;;5.50;;
30635;SDS011;17400;52.392;9.750;2023-11-21T06:13:39;9.02;;;4.15;;
30635;SDS011;17400;52.392;9.750;2023-11-21T06:16:07;10.52;;;4.85;;
30635;SDS011;17400;52.392;9.750;2023-11-21T06:18:35;8.15;;;3.50;;
30635;SDS011;17400;52.392;9.750;2023-11-21T06:21:03;9.25;;;4.35;;
30635;SDS011;17400;52.392;9.750;2023-11-21T06:23:31;10.15;;;4.60;;
30635;SDS011;17400;52.392;9.750;2023-11-21T06:26:01;7.50;;;3.58;;
30635;SDS011;17400;52.392;9.750;2023-11-21T06:28:29;8.15;;;4.05;;
30635;SDS011;17400;52.392;9.750;2023-11-21T06:30:56;7.22;;;3.90;;
30635;SDS011;17400;52.392;9.750;2023-11-21T06:33:25;8.00;;;3.97;;
30635;SDS011;17400;52.392;9.750;2023-11-21T06:35:54;8.77;;;4.35;;
30635;SDS011;17400;52.392;9.750;2023-11-21T06:38:21;9.48;;;3.95;;
30635;SDS011;17400;52.392;9.750;2023-11-21T06:40:49;7.28;;;3.47;;
30635;SDS011;17400;52.392;9.750;2023-11-21T06:43:19;4.20;;;2.42;;
30635;SDS011;17400;52.392;9.750;2023-11-21T06:45:48;6.95;;;2.80;;
30635;SDS011;17400;52.392;9.750;2023-11-21T06:48:16;8.40;;;3.20;;
30635;SDS011;17400;52.392;9.750;2023-11-21T06:50:45;5.60;;;2.67;;
30635;SDS011;17400;52.392;9.750;2023-11-21T06:53:13;5.10;;;2.60;;
30635;SDS011;17400;52.392;9.750;2023-11-21T06:55:41;4.45;;;2.83;;
30635;SDS011;17400;52.392;9.750;2023-11-21T06:58:08;4.97;;;3.28;;
30635;SDS011;17400;52.392;9.750;2023-11-21T07:00:38;8.10;;;3.00;;
30635;SDS011;17400;52.392;9.750;2023-11-21T07:03:05;5.60;;;3.40;;
30635;SDS011;17400;52.392;9.750;2023-11-21T07:05:34;5.38;;;2.67;;
30635;SDS011;17400;52.392;9.750;2023-11-21T07:08:02;5.20;;;2.90;;
30635;SDS011;17400;52.392;9.750;2023-11-21T07:10:31;8.90;;;3.10;;
30635;SDS011;17400;52.392;9.750;2023-11-21T07:12:59;5.30;;;2.83;;
30635;SDS011;17400;52.392;9.750;2023-11-21T07:15:27;4.97;;;2.60;;
30635;SDS011;17400;52.392;9.750;2023-11-21T07:17:56;4.38;;;1.98;;
30635;SDS011;17400;52.392;9.750;2023-11-21T07:20:25;5.32;;;2.33;;
30635;SDS011;17400;52.392;9.750;2023-11-21T07:22:53;4.22;;;2.67;;
30635;SDS011;17400;52.392;9.750;2023-11-21T07:25:22;4.75;;;2.00;;
30635;SDS011;17400;52.392;9.750;2023-11-21T07:27:50;4.70;;;2.20;;
30635;SDS011;17400;52.392;9.750;2023-11-21T07:30:19;8.25;;;2.63;;
30635;SDS011;17400;52.392;9.750;2023-11-21T07:32:48;5.25;;;2.00;;
30635;SDS011;17400;52.392;9.750;2023-11-21T07:35:18;5.72;;;2.58;;
30635;SDS011;17400;52.392;9.750;2023-11-21T07:37:46;5.78;;;2.67;;
30635;SDS011;17400;52.392;9.750;2023-11-21T07:40:15;4.05;;;2.05;;
30635;SDS011;17400;52.392;9.750;2023-11-21T07:42:43;3.88;;;1.90;;
30635;SDS011;17400;52.392;9.750;2023-11-21T07:45:11;5.05;;;2.08;;
30635;SDS011;17400;52.392;9.750;2023-11-21T07:47:39;7.95;;;3.35;;
30635;SDS011;17400;52.392;9.750;2023-11-21T07:50:08;10.93;;;2.88;;
30635;SDS011;17400;52.392;9.750;2023-11-21T07:52:37;4.35;;;2.50;;
30635;SDS011;17400;52.392;9.750;2023-11-21T07:55:06;6.15;;;2.88;;
30635;SDS011;17400;52.392;9.750;2023-11-21T07:57:35;6.20;;;2.85;;
30635;SDS011;17400;52.392;9.750;2023-11-21T08:00:03;6.03;;;3.78;;
30635;SDS011;17400;52.392;9.750;2023-11-21T08:02:33;6.57;;;3.17;;
30635;SDS011;17400;52.392;9.750;2023-11-21T08:05:01;6.07;;;2.88;;
30635;SDS011;17400;52.392;9.750;2023-11-21T08:07:29;6.50;;;4.05;;
30635;SDS011;17400;52.392;9.750;2023-11-21T08:09:58;8.80;;;3.70;;
30635;SDS011;17400;52.392;9.750;2023-11-21T08:12:26;9.13;;;4.25;;
30635;SDS011;17400;52.392;9.750;2023-11-21T08:14:54;8.48;;;4.13;;
30635;SDS011;17400;52.392;9.750;2023-11-21T08:17:22;9.15;;;4.05;;
30635;SDS011;17400;52.392;9.750;2023-11-21T08:19:51;7.35;;;3.50;;
30635;SDS011;17400;52.392;9.750;2023-11-21T08:22:19;8.85;;;4.10;;
30635;SDS011;17400;52.392;9.750;2023-11-21T08:24:47;7.38;;;4.68;;
30635;SDS011;17400;52.392;9.750;2023-11-21T08:27:16;7.20;;;4.45;;
30635;SDS011;17400;52.392;9.750;2023-11-21T08:29:44;10.02;;;4.82;;
30635;SDS011;17400;52.392;9.750;2023-11-21T08:32:12;10.32;;;4.50;;
30635;SDS011;17400;52.392;9.750;2023-11-21T08:34:39;11.30;;;5.57;;
30635;SDS011;17400;52.392;9.750;2023-11-21T08:37:09;10.43;;;5.15;;
30635;SDS011;17400;52.392;9.750;2023-11-21T08:39:37;9.25;;;4.45;;
30635;SDS011;17400;52.392;9.750;2023-11-21T08:42:05;8.20;;;3.67;;
30635;SDS011;17400;52.392;9.750;2023-11-21T08:44:34;8.77;;;4.15;;
30635;SDS011;17400;52.392;9.750;2023-11-21T08:47:02;7.78;;;4.18;;
30635;SDS011;17400;52.392;9.750;2023-11-21T08:49:33;6.63;;;3.83;;
30635;SDS011;17400;52.392;9.750;2023-11-21T08:52:01;7.88;;;4.22;;
30635;SDS011;17400;52.392;9.750;2023-11-21T08:54:31;7.93;;;4.47;;
30635;SDS011;17400;52.392;9.750;2023-11-21T08:57:00;8.20;;;4.60;;
30635;SDS011;17400;52.392;9.750;2023-11-21T08:59:29;7.13;;;4.30;;
30635;SDS011;17400;52.392;9.750;2023-11-21T09:01:58;10.18;;;4.10;;
30635;SDS011;17400;52.392;9.750;2023-11-21T09:04:26;7.95;;;4.57;;
30635;SDS011;17400;52.392;9.750;2023-11-21T09:06:54;9.45;;;5.22;;
30635;SDS011;17400;52.392;9.750;2023-11-21T09:09:21;8.23;;;4.82;;
30635;SDS011;17400;52.392;9.750;2023-11-21T09:11:51;8.95;;;4.72;;
30635;SDS011;17400;52.392;9.750;2023-11-21T09:14:19;8.40;;;4.20;;
30635;SDS011;17400;52.392;9.750;2023-11-21T09:16:47;10.00;;;5.38;;
30635;SDS011;17400;52.392;9.750;2023-11-21T09:19:17;10.57;;;4.78;;
30635;SDS011;17400;52.392;9.750;2023-11-21T09:21:45;6.05;;;3.30;;
30635;SDS011;17400;52.392;9.750;2023-11-21T09:24:12;10.27;;;4.65;;
30635;SDS011;17400;52.392;9.750;2023-11-21T09:26:40;10.52;;;4.35;;
30635;SDS011;17400;52.392;9.750;2023-11-21T09:29:08;7.05;;;4.18;;
30635;SDS011;17400;52.392;9.750;2023-11-21T09:31:36;8.07;;;4.55;;
30635;SDS011;17400;52.392;9.750;2023-11-21T09:34:05;7.03;;;3.95;;
30635;SDS011;17400;52.392;9.750;2023-11-21T09:36:34;11.40;;;5.35;;
30635;SDS011;17400;52.392;9.750;2023-11-21T09:39:05;8.90;;;3.95;;
30635;SDS011;17400;52.392;9.750;2023-11-21T09:41:37;6.32;;;4.20;;
30635;SDS011;17400;52.392;9.750;2023-11-21T09:44:11;6.25;;;3.60;;
30635;SDS011;17400;52.392;9.750;2023-11-21T09:46:42;7.30;;;3.72;;
30635;SDS011;17400;52.392;9.750;2023-11-21T09:49:10;8.63;;;4.68;;
30635;SDS011;17400;52.392;9.750;2023-11-21T09:51:42;7.40;;;3.75;;
30635;SDS011;17400;52.392;9.750;2023-11-21T09:54:11;9.80;;;4.35;;
30635;SDS011;17400;52.392;9.750;2023-11-21T09:56:42;8.27;;;4.22;;
30635;SDS011;17400;52.392;9.750;2023-11-21T09:59:11;9.13;;;4.32;;
30635;SDS011;17400;52.392;9.750;2023-11-21T10:01:42;8.20;;;3.80;;
30635;SDS011;17400;52.392;9.750;2023-11-21T10:04:11;5.32;;;3.30;;
30635;SDS011;17400;52.392;9.750;2023-11-21T10:06:41;6.28;;;3.83;;
30635;SDS011;17400;52.392;9.750;2023-11-21T10:09:12;7.18;;;4.82;;
30635;SDS011;17400;52.392;9.750;2023-11-21T10:11:41;8.63;;;3.92;;
30635;SDS011;17400;52.392;9.750;2023-11-21T10:14:10;8.07;;;3.45;;
30635;SDS011;17400;52.392;9.750;2023-11-21T10:16:41;7.13;;;3.47;;
30635;SDS011;17400;52.392;9.750;2023-11-21T10:19:13;4.80;;;3.25;;
30635;SDS011;17400;52.392;9.750;2023-11-21T10:21:44;5.60;;;3.15;;
30635;SDS011;17400;52.392;9.750;2023-11-21T10:24:12;7.55;;;3.78;;
30635;SDS011;17400;52.392;9.750;2023-11-21T10:26:40;5.22;;;2.85;;
30635;SDS011;17400;52.392;9.750;2023-11-21T10:29:18;6.32;;;3.63;;
30635;SDS011;17400;52.392;9.750;2023-11-21T10:31:49;6.57;;;3.53;;
30635;SDS011;17400;52.392;9.750;2023-11-21T10:34:19;8.13;;;3.90;;
30635;SDS011;17400;52.392;9.750;2023-11-21T10:36:50;8.63;;;4.35;;
30635;SDS011;17400;52.392;9.750;2023-11-21T10:39:18;6.47;;;3.40;;
30635;SDS011;17400;52.392;9.750;2023-11-21T10:41:50;7.22;;;3.70;;
30635;SDS011;17400;52.392;9.750;2023-11-21T10:44:18;4.68;;;3.15;;
30635;SDS011;17400;52.392;9.750;2023-11-21T10:46:49;6.50;;;3.58;;
30635;SDS011;17400;52.392;9.750;2023-11-21T10:49:18;7.38;;;4.05;;
30635;SDS011;17400;52.392;9.750;2023-11-21T10:51:47;7.43;;;3.80;;
30635;SDS011;17400;52.392;9.750;2023-11-21T10:54:19;6.68;;;3.83;;
30635;SDS011;17400;52.392;9.750;2023-11-21T10:56:49;6.18;;;3.42;;
30635;SDS011;17400;52.392;9.750;2023-11-21T10:59:18;5.13;;;2.75;;
30635;SDS011;17400;52.392;9.750;2023-11-21T11:01:51;6.85;;;3.60;;
30635;SDS011;17400;52.392;9.750;2023-11-21T11:04:19;6.65;;;2.75;;
30635;SDS011;17400;52.392;9.750;2023-11-21T11:06:50;5.93;;;3.28;;
30635;SDS011;17400;52.392;9.750;2023-11-21T11:09:24;6.82;;;3.95;;
30635;SDS011;17400;52.392;9.750;2023-11-21T11:11:52;6.45;;;3.88;;
30635;SDS011;17400;52.392;9.750;2023-11-21T11:14:20;4.72;;;3.03;;
30635;SDS011;17400;52.392;9.750;2023-11-21T11:16:53;8.93;;;3.72;;
30635;SDS011;17400;52.392;9.750;2023-11-21T11:19:22;7.10;;;3.85;;
30635;SDS011;17400;52.392;9.750;2023-11-21T11:21:53;5.80;;;2.95;;
30635;SDS011;17400;52.392;9.750;2023-11-21T11:24:44;6.07;;;3.17;;
30635;SDS011;17400;52.392;9.750;2023-11-21T11:27:28;7.35;;;3.58;;
30635;SDS011;17400;52.392;9.750;2023-11-21T11:30:08;5.80;;;3.28;;
30635;SDS011;17400;52.392;9.750;2023-11-21T11:32:47;6.32;;;3.80;;
30635;SDS011;17400;52.392;9.750;2023-11-21T11:35:24;6.32;;;3.28;;
30635;SDS011;17400;52.392;9.750;2023-11-21T11:38:01;7.30;;;3.40;;
30635;SDS011;17400;52.392;9.750;2023-11-21T11:40:39;4.88;;;3.10;;
30635;SDS011;17400;52.392;9.750;2023-11-21T11:43:08;7.57;;;3.10;;
30635;SDS011;17400;52.392;9.750;2023-11-21T11:45:36;6.90;;;3.70;;
30635;SDS011;17400;52.392;9.750;2023-11-21T11:48:08;6.57;;;3.83;;
30635;SDS011;17400;52.392;9.750;2023-11-21T11:53:37;6.43;;;3.63;;
30635;SDS011;17400;52.392;9.750;2023-11-21T11:56:25;6.55;;;3.30;;
30635;SDS011;17400;52.392;9.750;2023-11-21T11:58:54;4.18;;;2.35;;
30635;SDS011;17400;52.392;9.750;2023-11-21T12:01:24;5.85;;;2.42;;
30635;SDS011;17400;52.392;9.750;2023-11-21T12:07:01;4.50;;;2.38;;
30635;SDS011;17400;52.392;9.750;2023-11-21T12:09:30;4.53;;;2.55;;
30635;SDS011;17400;52.392;9.750;2023-11-21T12:12:01;6.07;;;2.90;;
30635;SDS011;17400;52.392;9.750;2023-11-21T12:14:30;4.35;;;2.63;;
30635;SDS011;17400;52.392;9.750;2023-11-21T12:16:58;5.93;;;3.40;;
30635;SDS011;17400;52.392;9.750;2023-11-21T12:19:27;4.90;;;2.92;;
30635;SDS011;17400;52.392;9.750;2023-11-21T12:21:54;6.88;;;3.90;;
30635;SDS011;17400;52.392;9.750;2023-11-21T12:24:23;6.10;;;3.30;;
30635;SDS011;17400;52.392;9.750;2023-11-21T12:26:51;5.18;;;2.97;;
30635;SDS011;17400;52.392;9.750;2023-11-21T12:29:20;3.80;;;1.95;;
30635;SDS011;17400;52.392;9.750;2023-11-21T12:31:48;5.20;;;2.65;;
30635;SDS011;17400;52.392;9.750;2023-11-21T12:34:17;5.47;;;3.08;;
30635;SDS011;17400;52.392;9.750;2023-11-21T12:36:45;5.30;;;3.38;;
30635;SDS011;17400;52.392;9.750;2023-11-21T12:39:13;6.35;;;2.85;;
30635;SDS011;17400;52.392;9.750;2023-11-21T12:41:41;6.03;;;3.05;;
30635;SDS011;17400;52.392;9.750;2023-11-21T12:44:09;5.53;;;3.20;;
30635;SDS011;17400;52.392;9.750;2023-11-21T12:46:43;5.05;;;3.40;;
30635;SDS011;17400;52.392;9.750;2023-11-21T12:49:13;4.75;;;2.30;;
30635;SDS011;17400;52.392;9.750;2023-11-21T12:51:45;3.83;;;2.70;;
30635;SDS011;17400;52.392;9.750;2023-11-21T12:54:13;5.55;;;2.95;;
30635;SDS011;17400;52.392;9.750;2023-11-21T12:56:44;4.57;;;2.55;;
30635;SDS011;17400;52.392;9.750;2023-11-21T12:59:14;7.00;;;3.53;;
30635;SDS011;17400;52.392;9.750;2023-11-21T13:01:45;6.72;;;2.97;;
30635;SDS011;17400;52.392;9.750;2023-11-21T13:04:17;6.35;;;3.10;;
30635;SDS011;17400;52.392;9.750;2023-11-21T13:06:45;5.55;;;3.30;;
30635;SDS011;17400;52.392;9.750;2023-11-21T13:09:13;4.78;;;2.75;;
30635;SDS011;17400;52.392;9.750;2023-11-21T13:11:48;6.32;;;3.20;;
30635;SDS011;17400;52.392;9.750;2023-11-21T13:14:16;7.15;;;3.67;;
30635;SDS011;17400;52.392;9.750;2023-11-21T13:16:45;4.20;;;2.45;;
30635;SDS011;17400;52.392;9.750;2023-11-21T13:19:13;6.20;;;3.58;;
30635;SDS011;17400;52.392;9.750;2023-11-21T13:21:41;6.88;;;3.80;;
30635;SDS011;17400;52.392;9.750;2023-11-21T13:24:09;4.57;;;3.03;;
30635;SDS011;17400;52.392;9.750;2023-11-21T13:26:37;7.88;;;4.53;;
30635;SDS011;17400;52.392;9.750;2023-11-21T13:29:05;7.30;;;4.18;;
30635;SDS011;17400;52.392;9.750;2023-11-21T13:31:33;6.85;;;3.65;;
30635;SDS011;17400;52.392;9.750;2023-11-21T13:34:05;6.13;;;3.97;;
30635;SDS011;17400;52.392;9.750;2023-11-21T13:36:35;6.32;;;3.30;;
30635;SDS011;17400;52.392;9.750;2023-11-21T13:39:03;6.97;;;4.05;;
30635;SDS011;17400;52.392;9.750;2023-11-21T13:41:35;6.20;;;4.00;;
30635;SDS011;17400;52.392;9.750;2023-11-21T13:44:05;6.47;;;3.85;;
30635;SDS011;17400;52.392;9.750;2023-11-21T13:46:42;8.07;;;3.35;;
30635;SDS011;17400;52.392;9.750;2023-11-21T13:49:14;6.90;;;3.63;;
30635;SDS011;17400;52.392;9.750;2023-11-21T13:51:43;4.40;;;2.95;;
30635;SDS011;17400;52.392;9.750;2023-11-21T13:54:14;5.10;;;3.15;;
30635;SDS011;17400;52.392;9.750;2023-11-21T13:56:42;8.10;;;3.72;;
30635;SDS011;17400;52.392;9.750;2023-11-21T13:59:12;7.30;;;3.13;;
30635;SDS011;17400;52.392;9.750;2023-11-21T14:01:47;5.10;;;2.80;;
30635;SDS011;17400;52.392;9.750;2023-11-21T14:04:24;4.18;;;2.40;;
30635;SDS011;17400;52.392;9.750;2023-11-21T14:07:13;4.25;;;2.58;;
30635;SDS011;17400;52.392;9.750;2023-11-21T14:09:52;7.85;;;2.88;;
30635;SDS011;17400;52.392;9.750;2023-11-21T14:12:20;3.63;;;2.75;;
30635;SDS011;17400;52.392;9.750;2023-11-21T14:14:48;5.90;;;2.15;;
30635;SDS011;17400;52.392;9.750;2023-11-21T14:17:16;5.50;;;2.58;;
30635;SDS011;17400;52.392;9.750;2023-11-21T14:19:46;4.65;;;2.90;;
30635;SDS011;17400;52.392;9.750;2023-11-21T14:22:13;5.22;;;3.20;;
30635;SDS011;17400;52.392;9.750;2023-11-21T14:24:41;4.68;;;3.33;;
30635;SDS011;17400;52.392;9.750;2023-11-21T14:27:13;6.03;;;2.60;;
30635;SDS011;17400;52.392;9.750;2023-11-21T14:29:41;4.97;;;2.50;;
30635;SDS011;17400;52.392;9.750;2023-11-21T14:32:13;9.40;;;3.38;;
30635;SDS011;17400;52.392;9.750;2023-11-21T14:34:42;5.32;;;2.80;;
30635;SDS011;17400;52.392;9.750;2023-11-21T14:37:14;4.30;;;2.53;;
30635;SDS011;17400;52.392;9.750;2023-11-21T14:39:42;3.90;;;2.55;;
30635;SDS011;17400;52.392;9.750;2023-11-21T14:42:14;4.53;;;2.75;;
30635;SDS011;17400;52.392;9.750;2023-11-21T14:44:42;5.90;;;2.78;;
30635;SDS011;17400;52.392;9.750;2023-11-21T14:47:10;5.40;;;2.95;;
30635;SDS011;17400;52.392;9.750;2023-11-21T14:49:42;4.95;;;2.90;;
30635;SDS011;17400;52.392;9.750;2023-11-21T14:52:20;5.28;;;2.95;;
30635;SDS011;17400;52.392;9.750;2023-11-21T14:55:02;5.50;;;3.38;;
30635;SDS011;17400;52.392;9.750;2023-11-21T14:57:58;5.78;;;3.28;;
30635;SDS011;17400;52.392;9.750;2023-11-21T15:00:29;6.03;;;4.05;;